sensor_id;sensor_type;location;lat;lon;timestamp;P1;durP1;ratioP1;P2;durP2;ratioP2
24102;SDS011;12278;53.058;9.028;2024-01-16T00:03:55;6.40;;;1.60;;
24102;SDS011;12278;53.058;9.028;2024-01-16T00:07:56;1.47;;;1.30;;
24102;SDS011;12278;53.058;9.028;2024-01-16T00:11:59;2.23;;;1.67;;
24102;SDS011;12278;53.058;9.028;2024-01-16T00:16:01;2.60;;;1.87;;
24102;SDS011;12278;53.058;9.028;2024-01-16T00:20:04;6.33;;;2.47;;
24102;SDS011;12278;53.058;9.028;2024-01-16T00:24:05;6.10;;;2.87;;
24102;SDS011;12278;53.058;9.028;2024-01-16T00:28:06;3.90;;;3.17;;
24102;SDS011;12278;53.058;9.028;2024-01-16T00:32:07;6.90;;;3.97;;
24102;SDS011;12278;53.058;9.028;2024-01-16T00:36:08;4.00;;;3.60;;
24102;SDS011;12278;53.058;9.028;2024-01-16T00:40:09;4.87;;;3.10;;
24102;SDS011;12278;53.058;9.028;2024-01-16T00:44:10;3.77;;;3.43;;
24102;SDS011;12278;53.058;9.028;2024-01-16T00:48:11;2.80;;;2.13;;
24102;SDS011;12278;53.058;9.028;2024-01-16T00:52:13;3.90;;;2.77;;
24102;SDS011;12278;53.058;9.028;2024-01-16T00:56:14;2.50;;;2.10;;
24102;SDS011;12278;53.058;9.028;2024-01-16T01:00:15;2.40;;;2.20;;
24102;SDS011;12278;53.058;9.028;2024-01-16T01:04:15;2.30;;;2.10;;
24102;SDS011;12278;53.058;9.028;2024-01-16T01:08:16;6.27;;;3.17;;
24102;SDS011;12278;53.058;9.028;2024-01-16T01:12:17;2.30;;;1.90;;
24102;SDS011;12278;53.058;9.028;2024-01-16T01:16:17;1.83;;;1.40;;
24102;SDS011;12278;53.058;9.028;2024-01-16T01:20:18;2.63;;;2.00;;
24102;SDS011;12278;53.058;9.028;2024-01-16T01:24:19;2.83;;;1.43;;
24102;SDS011;12278;53.058;9.028;2024-01-16T01:28:20;2.80;;;1.60;;
24102;SDS011;12278;53.058;9.028;2024-01-16T01:32:21;2.37;;;1.57;;
24102;SDS011;12278;53.058;9.028;2024-01-16T01:36:21;2.17;;;1.57;;
24102;SDS011;12278;53.058;9.028;2024-01-16T01:40:22;1.70;;;1.60;;
24102;SDS011;12278;53.058;9.028;2024-01-16T01:44:22;3.50;;;2.10;;
24102;SDS011;12278;53.058;9.028;2024-01-16T01:48:24;3.17;;;1.97;;
24102;SDS011;12278;53.058;9.028;2024-01-16T01:52:25;1.67;;;1.50;;
24102;SDS011;12278;53.058;9.028;2024-01-16T01:56:26;2.87;;;1.27;;
24102;SDS011;12278;53.058;9.028;2024-01-16T02:00:27;1.37;;;1.10;;
24102;SDS011;12278;53.058;9.028;2024-01-16T02:04:28;1.63;;;1.17;;
24102;SDS011;12278;53.058;9.028;2024-01-16T02:08:30;0.70;;;0.70;;
24102;SDS011;12278;53.058;9.028;2024-01-16T02:12:32;0.90;;;0.60;;
24102;SDS011;12278;53.058;9.028;2024-01-16T02:16:37;1.43;;;0.70;;
24102;SDS011;12278;53.058;9.028;2024-01-16T02:20:41;1.07;;;0.70;;
24102;SDS011;12278;53.058;9.028;2024-01-16T02:24:42;1.43;;;0.60;;
24102;SDS011;12278;53.058;9.028;2024-01-16T02:28:43;1.20;;;0.67;;
24102;SDS011;12278;53.058;9.028;2024-01-16T02:32:43;0.60;;;0.60;;
24102;SDS011;12278;53.058;9.028;2024-01-16T02:36:44;0.93;;;0.83;;
24102;SDS011;12278;53.058;9.028;2024-01-16T02:40:45;1.57;;;1.20;;
24102;SDS011;12278;53.058;9.028;2024-01-16T02:44:45;1.00;;;0.80;;
24102;SDS011;12278;53.058;9.028;2024-01-16T02:48:46;2.63;;;1.27;;
24102;SDS011;12278;53.058;9.028;2024-01-16T02:52:47;3.50;;;1.50;;
24102;SDS011;12278;53.058;9.028;2024-01-16T02:56:48;2.50;;;1.20;;
24102;SDS011;12278;53.058;9.028;2024-01-16T03:00:48;1.00;;;0.83;;
24102;SDS011;12278;53.058;9.028;2024-01-16T03:04:49;1.33;;;1.23;;
24102;SDS011;12278;53.058;9.028;2024-01-16T03:08:50;1.20;;;1.03;;
24102;SDS011;12278;53.058;9.028;2024-01-16T03:12:51;3.03;;;1.37;;
24102;SDS011;12278;53.058;9.028;2024-01-16T03:16:52;1.57;;;1.33;;
24102;SDS011;12278;53.058;9.028;2024-01-16T03:20:53;1.60;;;1.43;;
24102;SDS011;12278;53.058;9.028;2024-01-16T03:24:54;2.03;;;1.20;;
24102;SDS011;12278;53.058;9.028;2024-01-16T03:28:54;2.97;;;1.63;;
24102;SDS011;12278;53.058;9.028;2024-01-16T03:32:55;3.00;;;1.47;;
24102;SDS011;12278;53.058;9.028;2024-01-16T03:36:56;1.97;;;1.63;;
24102;SDS011;12278;53.058;9.028;2024-01-16T03:40:56;8.47;;;1.60;;
24102;SDS011;12278;53.058;9.028;2024-01-16T03:44:57;2.20;;;1.73;;
24102;SDS011;12278;53.058;9.028;2024-01-16T03:48:57;4.20;;;1.80;;
24102;SDS011;12278;53.058;9.028;2024-01-16T03:52:58;1.97;;;1.33;;
24102;SDS011;12278;53.058;9.028;2024-01-16T03:56:58;2.77;;;1.40;;
24102;SDS011;12278;53.058;9.028;2024-01-16T04:00:59;2.67;;;1.47;;
24102;SDS011;12278;53.058;9.028;2024-01-16T04:05:00;3.83;;;1.50;;
24102;SDS011;12278;53.058;9.028;2024-01-16T04:09:01;3.10;;;1.50;;
24102;SDS011;12278;53.058;9.028;2024-01-16T04:13:02;2.43;;;1.33;;
24102;SDS011;12278;53.058;9.028;2024-01-16T04:17:03;1.67;;;1.20;;
24102;SDS011;12278;53.058;9.028;2024-01-16T04:21:04;5.33;;;1.30;;
24102;SDS011;12278;53.058;9.028;2024-01-16T04:25:05;7.70;;;1.70;;
24102;SDS011;12278;53.058;9.028;2024-01-16T04:29:05;3.23;;;1.30;;
24102;SDS011;12278;53.058;9.028;2024-01-16T04:33:06;1.83;;;1.40;;
24102;SDS011;12278;53.058;9.028;2024-01-16T04:37:07;2.27;;;1.10;;
24102;SDS011;12278;53.058;9.028;2024-01-16T04:41:07;1.90;;;1.57;;
24102;SDS011;12278;53.058;9.028;2024-01-16T04:45:08;5.73;;;1.67;;
24102;SDS011;12278;53.058;9.028;2024-01-16T04:49:09;4.00;;;0.80;;
24102;SDS011;12278;53.058;9.028;2024-01-16T04:53:10;4.30;;;1.50;;
24102;SDS011;12278;53.058;9.028;2024-01-16T04:57:11;1.73;;;1.23;;
24102;SDS011;12278;53.058;9.028;2024-01-16T05:01:12;1.60;;;0.87;;
24102;SDS011;12278;53.058;9.028;2024-01-16T05:05:13;1.63;;;1.40;;
24102;SDS011;12278;53.058;9.028;2024-01-16T05:09:14;1.53;;;1.03;;
24102;SDS011;12278;53.058;9.028;2024-01-16T05:13:14;1.73;;;0.97;;
24102;SDS011;12278;53.058;9.028;2024-01-16T05:17:15;1.60;;;1.20;;
24102;SDS011;12278;53.058;9.028;2024-01-16T05:21:15;5.10;;;1.33;;
24102;SDS011;12278;53.058;9.028;2024-01-16T05:25:16;5.67;;;2.07;;
24102;SDS011;12278;53.058;9.028;2024-01-16T05:29:18;6.87;;;3.30;;
24102;SDS011;12278;53.058;9.028;2024-01-16T05:33:18;3.07;;;1.27;;
24102;SDS011;12278;53.058;9.028;2024-01-16T05:37:19;4.43;;;1.60;;
24102;SDS011;12278;53.058;9.028;2024-01-16T05:41:20;2.43;;;1.23;;
24102;SDS011;12278;53.058;9.028;2024-01-16T05:45:20;6.43;;;1.60;;
24102;SDS011;12278;53.058;9.028;2024-01-16T05:49:21;9.03;;;1.73;;
24102;SDS011;12278;53.058;9.028;2024-01-16T05:53:22;5.37;;;2.07;;
24102;SDS011;12278;53.058;9.028;2024-01-16T05:57:22;2.73;;;1.60;;
24102;SDS011;12278;53.058;9.028;2024-01-16T06:01:23;4.53;;;1.50;;
24102;SDS011;12278;53.058;9.028;2024-01-16T06:05:24;2.23;;;1.30;;
24102;SDS011;12278;53.058;9.028;2024-01-16T06:09:24;4.33;;;1.33;;
24102;SDS011;12278;53.058;9.028;2024-01-16T06:13:25;1.97;;;1.67;;
24102;SDS011;12278;53.058;9.028;2024-01-16T06:17:26;1.67;;;1.40;;
24102;SDS011;12278;53.058;9.028;2024-01-16T06:21:27;5.57;;;1.90;;
24102;SDS011;12278;53.058;9.028;2024-01-16T06:25:27;4.80;;;1.50;;
24102;SDS011;12278;53.058;9.028;2024-01-16T06:29:28;4.77;;;2.17;;
24102;SDS011;12278;53.058;9.028;2024-01-16T06:33:28;4.00;;;1.97;;
24102;SDS011;12278;53.058;9.028;2024-01-16T06:37:29;4.57;;;1.60;;
24102;SDS011;12278;53.058;9.028;2024-01-16T06:41:30;4.30;;;1.93;;
24102;SDS011;12278;53.058;9.028;2024-01-16T06:45:30;9.27;;;3.27;;
24102;SDS011;12278;53.058;9.028;2024-01-16T06:49:31;4.10;;;2.50;;
24102;SDS011;12278;53.058;9.028;2024-01-16T06:53:32;4.03;;;1.93;;
24102;SDS011;12278;53.058;9.028;2024-01-16T06:57:32;2.87;;;2.03;;
24102;SDS011;12278;53.058;9.028;2024-01-16T07:01:33;5.53;;;2.00;;
24102;SDS011;12278;53.058;9.028;2024-01-16T07:05:34;7.70;;;2.83;;
24102;SDS011;12278;53.058;9.028;2024-01-16T07:09:34;5.53;;;2.30;;
24102;SDS011;12278;53.058;9.028;2024-01-16T07:13:35;3.53;;;2.57;;
24102;SDS011;12278;53.058;9.028;2024-01-16T07:17:36;3.60;;;2.40;;
24102;SDS011;12278;53.058;9.028;2024-01-16T07:21:36;2.50;;;2.20;;
24102;SDS011;12278;53.058;9.028;2024-01-16T07:25:37;4.13;;;2.07;;
24102;SDS011;12278;53.058;9.028;2024-01-16T07:29:38;4.13;;;2.47;;
24102;SDS011;12278;53.058;9.028;2024-01-16T07:33:39;2.30;;;2.10;;
24102;SDS011;12278;53.058;9.028;2024-01-16T07:37:39;4.43;;;1.87;;
24102;SDS011;12278;53.058;9.028;2024-01-16T07:41:40;3.50;;;2.30;;
24102;SDS011;12278;53.058;9.028;2024-01-16T07:45:40;4.50;;;1.67;;
24102;SDS011;12278;53.058;9.028;2024-01-16T07:49:41;2.00;;;1.63;;
24102;SDS011;12278;53.058;9.028;2024-01-16T07:53:43;2.77;;;2.00;;
24102;SDS011;12278;53.058;9.028;2024-01-16T07:57:44;7.30;;;2.30;;
24102;SDS011;12278;53.058;9.028;2024-01-16T08:01:44;4.27;;;2.13;;
24102;SDS011;12278;53.058;9.028;2024-01-16T08:05:46;5.07;;;2.43;;
24102;SDS011;12278;53.058;9.028;2024-01-16T08:09:46;4.53;;;2.20;;
24102;SDS011;12278;53.058;9.028;2024-01-16T08:13:47;5.83;;;2.10;;
24102;SDS011;12278;53.058;9.028;2024-01-16T08:17:47;7.20;;;2.77;;
24102;SDS011;12278;53.058;9.028;2024-01-16T08:21:48;4.10;;;3.30;;
24102;SDS011;12278;53.058;9.028;2024-01-16T08:25:49;5.17;;;2.23;;
24102;SDS011;12278;53.058;9.028;2024-01-16T08:29:51;3.30;;;2.00;;
24102;SDS011;12278;53.058;9.028;2024-01-16T08:33:52;3.60;;;2.20;;
24102;SDS011;12278;53.058;9.028;2024-01-16T08:37:55;6.53;;;3.40;;
24102;SDS011;12278;53.058;9.028;2024-01-16T08:41:56;4.87;;;2.63;;
24102;SDS011;12278;53.058;9.028;2024-01-16T08:45:57;7.37;;;2.90;;
24102;SDS011;12278;53.058;9.028;2024-01-16T08:49:58;7.23;;;2.90;;
24102;SDS011;12278;53.058;9.028;2024-01-16T08:53:58;3.43;;;2.20;;
24102;SDS011;12278;53.058;9.028;2024-01-16T08:57:59;4.33;;;2.23;;
24102;SDS011;12278;53.058;9.028;2024-01-16T09:02:00;3.17;;;2.17;;
24102;SDS011;12278;53.058;9.028;2024-01-16T09:06:00;3.00;;;2.30;;
24102;SDS011;12278;53.058;9.028;2024-01-16T09:10:01;3.80;;;2.53;;
24102;SDS011;12278;53.058;9.028;2024-01-16T09:14:02;4.97;;;3.10;;
24102;SDS011;12278;53.058;9.028;2024-01-16T09:18:03;5.50;;;2.30;;
24102;SDS011;12278;53.058;9.028;2024-01-16T09:22:03;2.77;;;2.47;;
24102;SDS011;12278;53.058;9.028;2024-01-16T09:26:04;2.20;;;1.80;;
24102;SDS011;12278;53.058;9.028;2024-01-16T09:30:05;4.83;;;2.40;;
24102;SDS011;12278;53.058;9.028;2024-01-16T09:34:07;5.93;;;3.20;;
24102;SDS011;12278;53.058;9.028;2024-01-16T09:38:08;5.17;;;3.03;;
24102;SDS011;12278;53.058;9.028;2024-01-16T09:42:09;6.97;;;3.50;;
24102;SDS011;12278;53.058;9.028;2024-01-16T09:46:09;3.03;;;2.07;;
24102;SDS011;12278;53.058;9.028;2024-01-16T09:50:11;5.37;;;2.40;;
24102;SDS011;12278;53.058;9.028;2024-01-16T09:54:13;5.73;;;2.50;;
24102;SDS011;12278;53.058;9.028;2024-01-16T09:58:14;5.77;;;2.20;;
24102;SDS011;12278;53.058;9.028;2024-01-16T10:02:16;5.50;;;2.80;;
24102;SDS011;12278;53.058;9.028;2024-01-16T10:06:19;4.67;;;2.47;;
24102;SDS011;12278;53.058;9.028;2024-01-16T10:10:20;2.90;;;2.70;;
24102;SDS011;12278;53.058;9.028;2024-01-16T10:14:22;6.33;;;2.83;;
24102;SDS011;12278;53.058;9.028;2024-01-16T10:18:28;4.07;;;2.60;;
24102;SDS011;12278;53.058;9.028;2024-01-16T10:22:33;5.17;;;2.67;;
24102;SDS011;12278;53.058;9.028;2024-01-16T10:26:34;6.43;;;3.13;;
24102;SDS011;12278;53.058;9.028;2024-01-16T10:30:35;3.43;;;2.50;;
24102;SDS011;12278;53.058;9.028;2024-01-16T10:34:35;3.77;;;2.80;;
24102;SDS011;12278;53.058;9.028;2024-01-16T10:38:36;3.37;;;2.77;;
24102;SDS011;12278;53.058;9.028;2024-01-16T10:42:38;3.60;;;2.87;;
24102;SDS011;12278;53.058;9.028;2024-01-16T10:46:39;6.77;;;3.00;;
24102;SDS011;12278;53.058;9.028;2024-01-16T10:50:39;4.83;;;3.37;;
24102;SDS011;12278;53.058;9.028;2024-01-16T10:54:41;7.33;;;3.03;;
24102;SDS011;12278;53.058;9.028;2024-01-16T10:58:44;6.53;;;2.90;;
24102;SDS011;12278;53.058;9.028;2024-01-16T11:02:50;4.37;;;2.53;;
24102;SDS011;12278;53.058;9.028;2024-01-16T11:07:00;5.37;;;3.30;;
24102;SDS011;12278;53.058;9.028;2024-01-16T11:11:04;4.87;;;3.10;;
24102;SDS011;12278;53.058;9.028;2024-01-16T11:15:05;3.17;;;2.87;;
24102;SDS011;12278;53.058;9.028;2024-01-16T11:19:09;9.53;;;3.80;;
24102;SDS011;12278;53.058;9.028;2024-01-16T11:23:10;8.17;;;4.03;;
24102;SDS011;12278;53.058;9.028;2024-01-16T11:27:22;10.23;;;4.57;;
24102;SDS011;12278;53.058;9.028;2024-01-16T11:31:27;6.77;;;4.20;;
24102;SDS011;12278;53.058;9.028;2024-01-16T11:35:35;4.03;;;3.53;;
24102;SDS011;12278;53.058;9.028;2024-01-16T11:39:37;6.83;;;3.77;;
24102;SDS011;12278;53.058;9.028;2024-01-16T11:43:37;4.30;;;2.60;;
24102;SDS011;12278;53.058;9.028;2024-01-16T11:47:38;8.13;;;2.93;;
24102;SDS011;12278;53.058;9.028;2024-01-16T11:51:40;7.20;;;3.07;;
24102;SDS011;12278;53.058;9.028;2024-01-16T12:04:07;4.83;;;2.50;;
24102;SDS011;12278;53.058;9.028;2024-01-16T12:08:09;3.17;;;2.80;;
24102;SDS011;12278;53.058;9.028;2024-01-16T12:12:10;7.00;;;2.93;;
24102;SDS011;12278;53.058;9.028;2024-01-16T12:16:12;10.53;;;4.23;;
24102;SDS011;12278;53.058;9.028;2024-01-16T12:20:16;4.80;;;3.90;;
24102;SDS011;12278;53.058;9.028;2024-01-16T12:24:18;3.30;;;3.00;;
24102;SDS011;12278;53.058;9.028;2024-01-16T12:28:20;6.80;;;3.30;;
24102;SDS011;12278;53.058;9.028;2024-01-16T12:32:21;5.30;;;3.13;;
24102;SDS011;12278;53.058;9.028;2024-01-16T12:36:22;3.17;;;2.60;;
24102;SDS011;12278;53.058;9.028;2024-01-16T12:40:23;4.63;;;3.40;;
24102;SDS011;12278;53.058;9.028;2024-01-16T12:44:29;3.83;;;3.30;;
24102;SDS011;12278;53.058;9.028;2024-01-16T12:48:30;4.23;;;3.17;;
24102;SDS011;12278;53.058;9.028;2024-01-16T12:52:31;4.57;;;3.10;;
24102;SDS011;12278;53.058;9.028;2024-01-16T12:56:32;3.83;;;2.70;;
24102;SDS011;12278;53.058;9.028;2024-01-16T13:00:33;3.93;;;3.00;;
24102;SDS011;12278;53.058;9.028;2024-01-16T13:04:33;6.13;;;3.10;;
24102;SDS011;12278;53.058;9.028;2024-01-16T13:08:34;4.60;;;2.90;;
24102;SDS011;12278;53.058;9.028;2024-01-16T13:12:34;3.50;;;2.90;;
24102;SDS011;12278;53.058;9.028;2024-01-16T13:16:36;6.20;;;3.27;;
24102;SDS011;12278;53.058;9.028;2024-01-16T13:20:37;4.93;;;3.30;;
24102;SDS011;12278;53.058;9.028;2024-01-16T13:24:38;5.53;;;4.23;;
24102;SDS011;12278;53.058;9.028;2024-01-16T13:28:39;7.03;;;4.40;;
24102;SDS011;12278;53.058;9.028;2024-01-16T13:32:39;6.87;;;3.77;;
24102;SDS011;12278;53.058;9.028;2024-01-16T13:36:40;8.67;;;3.47;;
24102;SDS011;12278;53.058;9.028;2024-01-16T13:40:42;6.00;;;4.20;;
24102;SDS011;12278;53.058;9.028;2024-01-16T13:44:43;6.90;;;4.77;;
24102;SDS011;12278;53.058;9.028;2024-01-16T13:48:44;6.97;;;4.90;;
24102;SDS011;12278;53.058;9.028;2024-01-16T13:52:45;7.93;;;5.23;;
24102;SDS011;12278;53.058;9.028;2024-01-16T13:56:46;6.90;;;4.40;;
24102;SDS011;12278;53.058;9.028;2024-01-16T14:00:47;10.47;;;5.73;;
24102;SDS011;12278;53.058;9.028;2024-01-16T14:04:47;6.33;;;5.40;;
24102;SDS011;12278;53.058;9.028;2024-01-16T14:08:48;9.17;;;5.70;;
24102;SDS011;12278;53.058;9.028;2024-01-16T14:12:49;7.30;;;5.03;;
24102;SDS011;12278;53.058;9.028;2024-01-16T14:16:50;7.10;;;5.57;;
24102;SDS011;12278;53.058;9.028;2024-01-16T14:20:51;9.80;;;6.27;;
24102;SDS011;12278;53.058;9.028;2024-01-16T14:24:52;7.77;;;4.50;;
24102;SDS011;12278;53.058;9.028;2024-01-16T14:28:52;9.13;;;5.20;;
24102;SDS011;12278;53.058;9.028;2024-01-16T14:32:53;5.23;;;3.37;;
24102;SDS011;12278;53.058;9.028;2024-01-16T14:36:55;12.77;;;5.40;;
24102;SDS011;12278;53.058;9.028;2024-01-16T14:40:55;7.27;;;5.03;;
24102;SDS011;12278;53.058;9.028;2024-01-16T14:44:57;10.10;;;6.17;;
24102;SDS011;12278;53.058;9.028;2024-01-16T14:48:57;7.63;;;5.23;;
24102;SDS011;12278;53.058;9.028;2024-01-16T14:52:58;10.87;;;5.00;;
24102;SDS011;12278;53.058;9.028;2024-01-16T14:56:59;4.57;;;3.90;;
24102;SDS011;12278;53.058;9.028;2024-01-16T15:00:59;11.43;;;5.17;;
24102;SDS011;12278;53.058;9.028;2024-01-16T15:05:00;6.40;;;4.93;;
24102;SDS011;12278;53.058;9.028;2024-01-16T15:09:01;7.33;;;5.00;;
24102;SDS011;12278;53.058;9.028;2024-01-16T15:13:01;7.57;;;5.70;;
24102;SDS011;12278;53.058;9.028;2024-01-16T15:17:02;8.87;;;6.03;;
24102;SDS011;12278;53.058;9.028;2024-01-16T15:21:03;10.27;;;6.07;;
24102;SDS011;12278;53.058;9.028;2024-01-16T15:25:04;11.20;;;6.67;;
24102;SDS011;12278;53.058;9.028;2024-01-16T15:29:05;10.47;;;6.13;;
24102;SDS011;12278;53.058;9.028;2024-01-16T15:33:08;11.60;;;6.73;;
24102;SDS011;12278;53.058;9.028;2024-01-16T15:37:09;9.07;;;6.80;;
24102;SDS011;12278;53.058;9.028;2024-01-16T15:41:10;9.90;;;5.67;;
24102;SDS011;12278;53.058;9.028;2024-01-16T15:45:10;16.77;;;10.17;;
24102;SDS011;12278;53.058;9.028;2024-01-16T15:49:11;14.17;;;8.77;;
24102;SDS011;12278;53.058;9.028;2024-01-16T15:53:11;10.43;;;7.13;;
24102;SDS011;12278;53.058;9.028;2024-01-16T15:57:15;17.13;;;9.00;;
24102;SDS011;12278;53.058;9.028;2024-01-16T16:01:15;18.37;;;7.03;;
24102;SDS011;12278;53.058;9.028;2024-01-16T16:05:16;10.20;;;7.43;;
24102;SDS011;12278;53.058;9.028;2024-01-16T16:09:17;11.17;;;7.50;;
24102;SDS011;12278;53.058;9.028;2024-01-16T16:13:17;14.17;;;8.53;;
24102;SDS011;12278;53.058;9.028;2024-01-16T16:17:18;13.37;;;7.93;;
24102;SDS011;12278;53.058;9.028;2024-01-16T16:21:19;11.77;;;8.37;;
24102;SDS011;12278;53.058;9.028;2024-01-16T16:25:19;15.93;;;9.93;;
24102;SDS011;12278;53.058;9.028;2024-01-16T16:29:20;17.03;;;11.60;;
24102;SDS011;12278;53.058;9.028;2024-01-16T16:33:21;13.77;;;9.30;;
24102;SDS011;12278;53.058;9.028;2024-01-16T16:37:21;15.73;;;10.50;;
24102;SDS011;12278;53.058;9.028;2024-01-16T16:41:23;12.70;;;9.53;;
24102;SDS011;12278;53.058;9.028;2024-01-16T16:45:24;12.30;;;9.27;;
24102;SDS011;12278;53.058;9.028;2024-01-16T16:49:25;12.63;;;9.37;;
24102;SDS011;12278;53.058;9.028;2024-01-16T16:53:26;9.10;;;7.83;;
24102;SDS011;12278;53.058;9.028;2024-01-16T16:57:26;14.03;;;8.50;;
24102;SDS011;12278;53.058;9.028;2024-01-16T17:01:27;8.83;;;6.97;;
24102;SDS011;12278;53.058;9.028;2024-01-16T17:05:27;7.07;;;6.30;;
24102;SDS011;12278;53.058;9.028;2024-01-16T17:09:28;8.60;;;6.47;;
24102;SDS011;12278;53.058;9.028;2024-01-16T17:13:29;6.90;;;6.13;;
24102;SDS011;12278;53.058;9.028;2024-01-16T17:17:31;8.83;;;6.37;;
24102;SDS011;12278;53.058;9.028;2024-01-16T17:21:34;8.00;;;6.33;;
24102;SDS011;12278;53.058;9.028;2024-01-16T17:25:36;10.07;;;6.80;;
24102;SDS011;12278;53.058;9.028;2024-01-16T17:29:37;10.30;;;5.53;;
24102;SDS011;12278;53.058;9.028;2024-01-16T17:33:38;13.07;;;6.87;;
24102;SDS011;12278;53.058;9.028;2024-01-16T17:37:39;6.27;;;5.53;;
24102;SDS011;12278;53.058;9.028;2024-01-16T17:41:39;12.30;;;5.77;;
24102;SDS011;12278;53.058;9.028;2024-01-16T17:45:40;7.33;;;4.80;;
24102;SDS011;12278;53.058;9.028;2024-01-16T17:49:41;11.37;;;5.50;;
24102;SDS011;12278;53.058;9.028;2024-01-16T17:53:41;10.63;;;6.80;;
24102;SDS011;12278;53.058;9.028;2024-01-16T17:57:47;11.23;;;7.23;;
24102;SDS011;12278;53.058;9.028;2024-01-16T18:01:47;12.27;;;7.07;;
24102;SDS011;12278;53.058;9.028;2024-01-16T18:05:48;11.40;;;7.60;;
24102;SDS011;12278;53.058;9.028;2024-01-16T18:09:49;8.03;;;6.53;;
24102;SDS011;12278;53.058;9.028;2024-01-16T18:13:50;8.30;;;5.37;;
24102;SDS011;12278;53.058;9.028;2024-01-16T18:17:50;12.17;;;5.23;;
24102;SDS011;12278;53.058;9.028;2024-01-16T18:21:51;7.67;;;5.67;;
24102;SDS011;12278;53.058;9.028;2024-01-16T18:25:52;8.47;;;5.50;;
24102;SDS011;12278;53.058;9.028;2024-01-16T18:29:54;9.37;;;5.73;;
24102;SDS011;12278;53.058;9.028;2024-01-16T18:33:56;6.37;;;4.80;;
24102;SDS011;12278;53.058;9.028;2024-01-16T18:37:57;7.23;;;5.17;;
24102;SDS011;12278;53.058;9.028;2024-01-16T18:41:58;7.63;;;5.33;;
24102;SDS011;12278;53.058;9.028;2024-01-16T18:45:59;8.67;;;5.53;;
24102;SDS011;12278;53.058;9.028;2024-01-16T18:49:59;6.13;;;4.87;;
24102;SDS011;12278;53.058;9.028;2024-01-16T18:54:00;6.03;;;5.00;;
24102;SDS011;12278;53.058;9.028;2024-01-16T18:58:01;12.30;;;4.23;;
24102;SDS011;12278;53.058;9.028;2024-01-16T19:02:03;9.70;;;5.20;;
24102;SDS011;12278;53.058;9.028;2024-01-16T19:06:05;4.93;;;4.33;;
24102;SDS011;12278;53.058;9.028;2024-01-16T19:10:13;5.30;;;4.80;;
24102;SDS011;12278;53.058;9.028;2024-01-16T19:14:14;6.80;;;5.33;;
24102;SDS011;12278;53.058;9.028;2024-01-16T19:18:15;9.50;;;6.87;;
24102;SDS011;12278;53.058;9.028;2024-01-16T19:22:16;5.63;;;5.03;;
24102;SDS011;12278;53.058;9.028;2024-01-16T19:26:16;7.43;;;6.13;;
24102;SDS011;12278;53.058;9.028;2024-01-16T19:30:17;5.60;;;5.03;;
24102;SDS011;12278;53.058;9.028;2024-01-16T19:34:19;7.63;;;5.60;;
24102;SDS011;12278;53.058;9.028;2024-01-16T19:38:19;9.03;;;6.17;;
24102;SDS011;12278;53.058;9.028;2024-01-16T19:42:20;10.30;;;6.23;;
24102;SDS011;12278;53.058;9.028;2024-01-16T19:46:21;10.60;;;6.30;;
24102;SDS011;12278;53.058;9.028;2024-01-16T19:50:21;9.13;;;6.43;;
24102;SDS011;12278;53.058;9.028;2024-01-16T19:54:23;10.03;;;4.83;;
24102;SDS011;12278;53.058;9.028;2024-01-16T19:58:25;12.13;;;7.70;;
24102;SDS011;12278;53.058;9.028;2024-01-16T20:02:26;8.20;;;5.87;;
24102;SDS011;12278;53.058;9.028;2024-01-16T20:06:27;9.03;;;6.53;;
24102;SDS011;12278;53.058;9.028;2024-01-16T20:10:29;9.17;;;7.90;;
24102;SDS011;12278;53.058;9.028;2024-01-16T20:14:29;9.93;;;7.07;;
24102;SDS011;12278;53.058;9.028;2024-01-16T20:18:30;7.40;;;5.97;;
24102;SDS011;12278;53.058;9.028;2024-01-16T20:22:31;7.63;;;6.93;;
24102;SDS011;12278;53.058;9.028;2024-01-16T20:26:32;10.27;;;6.70;;
24102;SDS011;12278;53.058;9.028;2024-01-16T20:30:34;9.47;;;6.97;;
24102;SDS011;12278;53.058;9.028;2024-01-16T20:34:36;7.33;;;6.30;;
24102;SDS011;12278;53.058;9.028;2024-01-16T20:38:37;8.60;;;6.33;;
24102;SDS011;12278;53.058;9.028;2024-01-16T20:42:38;10.83;;;6.73;;
24102;SDS011;12278;53.058;9.028;2024-01-16T20:46:38;11.63;;;6.67;;
24102;SDS011;12278;53.058;9.028;2024-01-16T20:50:39;11.63;;;6.73;;
24102;SDS011;12278;53.058;9.028;2024-01-16T20:54:41;13.23;;;8.03;;
24102;SDS011;12278;53.058;9.028;2024-01-16T20:58:42;6.17;;;5.50;;
24102;SDS011;12278;53.058;9.028;2024-01-16T21:02:43;7.17;;;6.17;;
24102;SDS011;12278;53.058;9.028;2024-01-16T21:06:43;9.97;;;7.63;;
24102;SDS011;12278;53.058;9.028;2024-01-16T21:10:44;10.00;;;8.30;;
24102;SDS011;12278;53.058;9.028;2024-01-16T21:14:45;8.27;;;6.57;;
24102;SDS011;12278;53.058;9.028;2024-01-16T21:18:45;12.13;;;9.10;;
24102;SDS011;12278;53.058;9.028;2024-01-16T21:22:48;11.97;;;8.27;;
24102;SDS011;12278;53.058;9.028;2024-01-16T21:26:49;8.17;;;6.80;;
24102;SDS011;12278;53.058;9.028;2024-01-16T21:30:49;11.33;;;8.73;;
24102;SDS011;12278;53.058;9.028;2024-01-16T21:34:51;12.17;;;8.20;;
24102;SDS011;12278;53.058;9.028;2024-01-16T21:38:52;11.20;;;7.80;;
24102;SDS011;12278;53.058;9.028;2024-01-16T21:42:52;10.60;;;7.10;;
24102;SDS011;12278;53.058;9.028;2024-01-16T21:46:53;8.63;;;6.50;;
24102;SDS011;12278;53.058;9.028;2024-01-16T21:50:54;8.57;;;6.80;;
24102;SDS011;12278;53.058;9.028;2024-01-16T21:54:56;9.73;;;7.93;;
24102;SDS011;12278;53.058;9.028;2024-01-16T21:58:58;11.00;;;7.93;;
24102;SDS011;12278;53.058;9.028;2024-01-16T22:02:59;10.77;;;8.13;;
24102;SDS011;12278;53.058;9.028;2024-01-16T22:06:59;9.70;;;7.20;;
24102;SDS011;12278;53.058;9.028;2024-01-16T22:11:02;12.30;;;8.33;;
24102;SDS011;12278;53.058;9.028;2024-01-16T22:15:05;12.17;;;9.23;;
24102;SDS011;12278;53.058;9.028;2024-01-16T22:19:06;11.17;;;8.37;;
24102;SDS011;12278;53.058;9.028;2024-01-16T22:23:06;20.27;;;9.67;;
24102;SDS011;12278;53.058;9.028;2024-01-16T22:27:07;17.57;;;10.20;;
24102;SDS011;12278;53.058;9.028;2024-01-16T22:31:08;15.47;;;8.73;;
24102;SDS011;12278;53.058;9.028;2024-01-16T22:35:09;12.63;;;8.07;;
24102;SDS011;12278;53.058;9.028;2024-01-16T22:39:10;12.87;;;9.10;;
24102;SDS011;12278;53.058;9.028;2024-01-16T22:43:15;13.13;;;8.97;;
24102;SDS011;12278;53.058;9.028;2024-01-16T22:47:15;10.93;;;8.63;;
24102;SDS011;12278;53.058;9.028;2024-01-16T22:51:16;11.07;;;8.23;;
24102;SDS011;12278;53.058;9.028;2024-01-16T22:55:17;10.33;;;8.73;;
24102;SDS011;12278;53.058;9.028;2024-01-16T22:59:19;13.93;;;9.20;;
24102;SDS011;12278;53.058;9.028;2024-01-16T23:03:20;14.73;;;9.83;;
24102;SDS011;12278;53.058;9.028;2024-01-16T23:07:21;13.93;;;8.37;;
24102;SDS011;12278;53.058;9.028;2024-01-16T23:11:22;13.80;;;8.33;;
24102;SDS011;12278;53.058;9.028;2024-01-16T23:15:23;10.13;;;8.13;;
24102;SDS011;12278;53.058;9.028;2024-01-16T23:19:24;11.13;;;8.17;;
24102;SDS011;12278;53.058;9.028;2024-01-16T23:23:25;10.07;;;8.03;;
24102;SDS011;12278;53.058;9.028;2024-01-16T23:27:25;15.73;;;8.23;;
24102;SDS011;12278;53.058;9.028;2024-01-16T23:31:26;10.63;;;9.30;;
24102;SDS011;12278;53.058;9.028;2024-01-16T23:35:27;10.67;;;8.93;;
24102;SDS011;12278;53.058;9.028;2024-01-16T23:39:27;17.00;;;8.07;;
24102;SDS011;12278;53.058;9.028;2024-01-16T23:43:29;12.13;;;8.70;;
24102;SDS011;12278;53.058;9.028;2024-01-16T23:47:33;12.90;;;9.33;;
24102;SDS011;12278;53.058;9.028;2024-01-16T23:51:35;11.77;;;9.33;;
24102;SDS011;12278;53.058;9.028;2024-01-16T23:55:36;14.23;;;9.90;;
24102;SDS011;12278;53.058;9.028;2024-01-16T23:59:38;16.47;;;9.53;;
